createdAt,value
2017-09-26T00:01:56.552Z,26.43
2017-09-26T00:04:24.127Z,33.93
2017-09-26T00:06:51.715Z,34.70
2017-09-26T00:09:20.359Z,33.40
2017-09-26T00:11:48.210Z,36.60
2017-09-26T00:14:15.775Z,28.93
2017-09-26T00:16:43.756Z,30.60
2017-09-26T00:19:11.326Z,27.40
2017-09-26T00:21:38.882Z,34.80
2017-09-26T00:24:06.957Z,31.57
2017-09-26T00:26:34.506Z,34.27
2017-09-26T00:29:02.065Z,37.20
2017-09-26T00:31:29.925Z,35.60
2017-09-26T00:33:57.622Z,27.93
2017-09-26T00:36:25.943Z,32.17
2017-09-26T00:39:03.767Z,31.33
2017-09-26T00:41:31.306Z,31.67
2017-09-26T00:43:58.889Z,37.30
2017-09-26T00:46:26.996Z,34.40
2017-09-26T00:48:55.516Z,34.73
2017-09-26T00:51:23.079Z,35.57
2017-09-26T00:53:50.956Z,35.43
2017-09-26T00:56:18.568Z,38.13
2017-09-26T00:58:46.146Z,33.37
2017-09-26T01:01:15.595Z,35.53
2017-09-26T01:03:50.591Z,36.50
2017-09-26T01:06:19.331Z,34.47
2017-09-26T01:08:56.729Z,29.20
2017-09-26T01:11:24.671Z,34.40
2017-09-26T01:13:53.167Z,35.27
2017-09-26T01:16:20.721Z,38.67
2017-09-26T01:18:48.344Z,35.20
2017-09-26T01:21:15.914Z,32.53
2017-09-26T01:23:43.483Z,32.90
2017-09-26T01:26:11.456Z,38.60
2017-09-26T01:28:39.012Z,32.50
2017-09-26T01:31:06.616Z,37.97
2017-09-26T01:33:35.008Z,30.27
2017-09-26T01:36:02.581Z,33.60
2017-09-26T01:38:30.157Z,35.67
2017-09-26T01:41:09.945Z,33.27
2017-09-26T01:43:37.517Z,32.83
2017-09-26T01:46:05.092Z,31.17
2017-09-26T01:48:33.767Z,35.60
2017-09-26T01:51:02.143Z,34.53
2017-09-26T01:53:29.727Z,31.20
2017-09-26T01:55:57.572Z,36.60
2017-09-26T01:58:31.569Z,32.40
2017-09-26T02:01:00.230Z,29.00
2017-09-26T02:03:27.779Z,42.50
2017-09-26T02:05:56.051Z,37.27
2017-09-26T02:08:24.050Z,39.57
2017-09-26T02:10:51.635Z,36.60
2017-09-26T02:13:19.186Z,34.50
2017-09-26T02:15:47.823Z,39.13
2017-09-26T02:18:15.414Z,34.10
2017-09-26T02:20:43.014Z,37.60
2017-09-26T02:23:10.629Z,37.07
2017-09-26T02:25:38.215Z,33.90
2017-09-26T02:28:05.807Z,33.17
2017-09-26T02:30:33.825Z,36.70
2017-09-26T02:33:01.424Z,31.77
2017-09-26T02:35:28.987Z,33.53
2017-09-26T02:37:57.047Z,27.77
2017-09-26T02:40:25.435Z,35.50
2017-09-26T02:42:53.031Z,37.77
2017-09-26T02:45:21.028Z,36.73
2017-09-26T02:47:48.598Z,33.33
2017-09-26T02:50:16.431Z,45.50
2017-09-26T02:52:44.055Z,39.07
2017-09-26T02:55:11.630Z,38.00
2017-09-26T02:57:39.217Z,36.40
2017-09-26T03:00:07.409Z,33.20
2017-09-26T03:02:34.968Z,36.03
2017-09-26T03:05:03.350Z,36.10
2017-09-26T03:07:30.971Z,28.97
2017-09-26T03:09:58.527Z,38.33
2017-09-26T03:12:26.128Z,34.67
2017-09-26T03:14:54.526Z,32.37
2017-09-26T03:17:22.156Z,33.50
2017-09-26T03:19:49.713Z,36.23
2017-09-26T03:22:17.796Z,32.97
2017-09-26T03:24:45.370Z,37.80
2017-09-26T03:27:12.920Z,35.43
2017-09-26T03:29:40.940Z,31.73
2017-09-26T03:32:08.508Z,35.50
2017-09-26T03:34:36.072Z,37.10
2017-09-26T03:37:04.167Z,33.60
2017-09-26T03:39:31.758Z,47.43
2017-09-26T03:41:59.349Z,34.40
2017-09-26T03:44:27.388Z,38.27
2017-09-26T03:46:55.702Z,44.13
2017-09-26T03:49:23.316Z,31.40
2017-09-26T03:51:51.968Z,33.27
2017-09-26T03:54:19.523Z,33.57
2017-09-26T03:56:47.177Z,31.70
2017-09-26T03:59:14.827Z,39.70
2017-09-26T04:01:42.421Z,56.17
2017-09-26T04:04:09.987Z,31.30
2017-09-26T04:06:37.956Z,34.23
2017-09-26T04:09:05.515Z,34.20
2017-09-26T04:11:33.086Z,37.67
2017-09-26T04:14:00.778Z,39.57
2017-09-26T04:16:28.338Z,33.03
2017-09-26T04:18:55.883Z,45.10
2017-09-26T04:21:24.533Z,39.40
2017-09-26T04:23:52.102Z,36.10
2017-09-26T04:26:19.663Z,35.60
2017-09-26T04:28:47.301Z,36.83
2017-09-26T04:31:14.861Z,32.40
2017-09-26T04:33:42.413Z,37.80
2017-09-26T04:36:10.286Z,43.03
2017-09-26T04:38:38.334Z,37.10
2017-09-26T04:41:06.107Z,39.10
2017-09-26T04:43:34.106Z,34.67
2017-09-26T04:46:01.739Z,36.60
2017-09-26T04:48:29.318Z,36.83
2017-09-26T04:50:58.460Z,33.70
2017-09-26T04:53:26.044Z,38.63
2017-09-26T04:55:53.615Z,42.90
2017-09-26T04:58:21.232Z,32.50
2017-09-26T05:00:48.798Z,39.67
2017-09-26T05:03:16.358Z,38.03
2017-09-26T05:05:43.969Z,40.53
2017-09-26T05:08:11.880Z,39.63
2017-09-26T05:10:39.580Z,42.60
2017-09-26T05:13:07.667Z,41.50
2017-09-26T05:15:35.240Z,43.80
2017-09-26T05:18:02.855Z,36.53
2017-09-26T05:20:30.518Z,38.60
2017-09-26T05:22:58.102Z,38.70
2017-09-26T05:25:25.683Z,35.07
2017-09-26T05:27:53.297Z,38.20
2017-09-26T05:30:20.846Z,45.17
2017-09-26T05:32:48.420Z,42.27
2017-09-26T05:35:16.286Z,37.03
2017-09-26T05:37:43.855Z,37.47
2017-09-26T05:40:11.432Z,45.10
2017-09-26T05:42:39.059Z,36.50
2017-09-26T05:45:06.616Z,41.40
2017-09-26T05:47:34.216Z,37.73
2017-09-26T05:50:01.835Z,41.53
2017-09-26T05:52:29.405Z,37.30
2017-09-26T05:54:57.078Z,36.60
2017-09-26T05:57:24.737Z,37.83
2017-09-26T05:59:52.311Z,42.47
2017-09-26T06:02:19.863Z,45.03
2017-09-26T06:04:47.501Z,40.77
2017-09-26T06:07:15.154Z,38.00
2017-09-26T06:09:42.708Z,38.23
2017-09-26T06:12:11.091Z,35.87
2017-09-26T06:14:38.651Z,39.53
2017-09-26T06:17:07.029Z,39.50
2017-09-26T06:19:34.977Z,44.03
2017-09-26T06:22:03.312Z,33.20
2017-09-26T06:24:30.901Z,35.23
2017-09-26T06:26:58.973Z,37.23
2017-09-26T06:29:26.528Z,42.60
2017-09-26T06:31:54.095Z,44.33
2017-09-26T06:34:21.702Z,46.37
2017-09-26T06:36:49.302Z,46.40
2017-09-26T06:39:16.882Z,47.13
2017-09-26T06:41:44.951Z,42.57
2017-09-26T06:44:12.523Z,55.57
2017-09-26T06:46:40.134Z,39.03
2017-09-26T06:49:07.881Z,48.97
2017-09-26T06:51:35.470Z,36.97
2017-09-26T06:54:03.025Z,40.83
2017-09-26T06:56:30.921Z,56.17
2017-09-26T06:58:58.565Z,58.63
2017-09-26T07:01:26.146Z,59.83
2017-09-26T07:03:54.087Z,49.03
2017-09-26T07:06:21.663Z,57.00
2017-09-26T07:08:49.265Z,49.33
2017-09-26T07:11:16.890Z,47.37
2017-09-26T07:13:45.080Z,58.37
2017-09-26T07:16:12.678Z,40.57
2017-09-26T07:18:40.305Z,45.23
2017-09-26T07:21:08.636Z,47.83
2017-09-26T07:23:36.223Z,38.20
2017-09-26T07:26:04.096Z,43.77
2017-09-26T07:28:31.663Z,45.80
2017-09-26T07:30:59.267Z,41.57
2017-09-26T07:33:26.963Z,39.87
2017-09-26T07:35:54.828Z,35.23
2017-09-26T07:38:22.407Z,39.53
2017-09-26T07:40:50.829Z,41.37
2017-09-26T07:43:18.379Z,41.40
2017-09-26T07:45:45.937Z,35.87
2017-09-26T07:48:13.616Z,34.30
2017-09-26T07:50:41.176Z,33.47
2017-09-26T07:53:08.769Z,34.53
2017-09-26T07:55:36.448Z,29.47
2017-09-26T07:58:04.068Z,33.23
2017-09-26T08:00:32.264Z,32.23
2017-09-26T08:03:00.361Z,29.03
2017-09-26T08:05:28.188Z,53.33
2017-09-26T08:07:56.533Z,24.10
2017-09-26T08:10:24.440Z,24.83
2017-09-26T08:12:52.001Z,17.90
2017-09-26T08:15:19.592Z,22.33
2017-09-26T08:17:48.260Z,22.50
2017-09-26T08:20:15.851Z,23.27
2017-09-26T08:22:43.421Z,22.13
2017-09-26T08:25:11.396Z,21.97
2017-09-26T08:27:39.084Z,17.60
2017-09-26T08:30:06.794Z,17.73
2017-09-26T08:32:35.170Z,19.97
2017-09-26T08:35:02.731Z,19.00
2017-09-26T08:37:31.060Z,18.50
2017-09-26T08:39:59.043Z,20.03
2017-09-26T08:42:26.600Z,18.40
2017-09-26T08:44:54.180Z,22.13
2017-09-26T08:47:21.809Z,17.73
2017-09-26T08:49:49.384Z,18.40
2017-09-26T08:52:16.949Z,23.67
2017-09-26T08:54:44.556Z,16.10
2017-09-26T08:57:12.155Z,19.07
2017-09-26T08:59:41.230Z,15.43
2017-09-26T09:02:09.247Z,17.70
2017-09-26T09:04:36.808Z,16.27
2017-09-26T09:07:04.391Z,18.87
2017-09-26T09:09:33.241Z,19.17
2017-09-26T09:12:00.795Z,17.20
2017-09-26T09:14:28.343Z,17.87
2017-09-26T09:16:55.999Z,16.60
2017-09-26T09:19:23.555Z,20.83
2017-09-26T09:21:51.142Z,32.33
2017-09-26T09:24:18.750Z,12.43
2017-09-26T09:26:46.294Z,14.17
2017-09-26T09:29:14.653Z,16.70
2017-09-26T09:31:42.295Z,14.27
2017-09-26T09:34:09.861Z,14.20
2017-09-26T09:36:37.418Z,14.10
2017-09-26T09:39:05.028Z,16.83
2017-09-26T09:41:32.614Z,13.10
2017-09-26T09:44:00.173Z,18.50
2017-09-26T09:46:28.068Z,16.13
2017-09-26T09:48:55.634Z,15.10
2017-09-26T09:51:23.976Z,12.60
2017-09-26T09:53:51.832Z,12.13
2017-09-26T09:56:19.424Z,14.47
2017-09-26T09:58:47.007Z,11.40
2017-09-26T10:01:14.618Z,14.10
2017-09-26T10:03:42.185Z,11.57
2017-09-26T10:06:09.738Z,13.63
2017-09-26T10:08:37.739Z,13.23
2017-09-26T10:11:05.279Z,13.73
2017-09-26T10:13:33.029Z,10.80
2017-09-26T10:16:00.921Z,10.90
2017-09-26T10:18:28.486Z,11.97
2017-09-26T10:20:56.075Z,11.07
2017-09-26T10:23:24.455Z,11.10
2017-09-26T10:25:52.003Z,10.13
2017-09-26T10:28:19.624Z,16.83
2017-09-26T10:30:47.517Z,16.03
2017-09-26T10:33:15.077Z,11.13
2017-09-26T10:35:42.633Z,9.07
2017-09-26T10:38:10.703Z,8.97
2017-09-26T10:40:38.254Z,11.73
2017-09-26T10:43:05.840Z,10.17
2017-09-26T10:45:34.208Z,8.90
2017-09-26T10:48:01.799Z,7.17
2017-09-26T10:50:30.116Z,10.60
2017-09-26T10:52:58.094Z,9.20
2017-09-26T10:55:25.675Z,13.40
2017-09-26T10:57:53.295Z,8.23
2017-09-26T11:00:21.649Z,10.17
2017-09-26T11:02:49.195Z,9.50
2017-09-26T11:05:17.566Z,10.40
2017-09-26T11:07:45.275Z,9.20
2017-09-26T11:10:12.830Z,9.00
2017-09-26T11:12:40.397Z,11.07
2017-09-26T11:15:08.340Z,8.30
2017-09-26T11:17:35.907Z,9.67
2017-09-26T11:20:03.479Z,13.10
2017-09-26T11:22:31.120Z,14.10
2017-09-26T11:24:58.723Z,9.90
2017-09-26T11:27:26.260Z,9.00
2017-09-26T11:29:53.910Z,9.77
2017-09-26T11:32:21.488Z,9.50
2017-09-26T11:34:49.052Z,9.43
2017-09-26T11:37:16.690Z,9.10
2017-09-26T11:39:44.309Z,8.17
2017-09-26T11:42:11.919Z,9.23
2017-09-26T11:44:39.559Z,10.80
2017-09-26T11:47:07.124Z,9.63
2017-09-26T11:49:35.187Z,9.17
2017-09-26T11:52:03.577Z,8.47
2017-09-26T11:54:31.191Z,9.07
2017-09-26T11:57:00.270Z,13.23
2017-09-26T11:59:28.263Z,12.80
2017-09-26T12:01:55.844Z,12.50
2017-09-26T12:04:23.420Z,7.50
2017-09-26T12:06:51.010Z,7.70
2017-09-26T12:09:18.625Z,7.80
2017-09-26T12:11:46.181Z,10.07
2017-09-26T12:14:14.564Z,7.40
2017-09-26T12:16:42.143Z,7.43
2017-09-26T12:19:09.768Z,8.60
2017-09-26T12:21:37.394Z,7.37
2017-09-26T12:24:04.964Z,8.33
2017-09-26T12:26:32.692Z,6.63
2017-09-26T12:29:00.332Z,7.37
2017-09-26T12:31:27.882Z,6.80
2017-09-26T12:33:56.236Z,10.40
2017-09-26T12:36:24.206Z,5.60
2017-09-26T12:38:51.767Z,5.83
2017-09-26T12:41:19.331Z,11.63
2017-09-26T12:43:46.961Z,7.50
2017-09-26T12:46:14.538Z,8.23
2017-09-26T12:48:42.150Z,6.67
2017-09-26T12:51:10.101Z,7.77
2017-09-26T12:53:38.424Z,6.87
2017-09-26T12:56:06.238Z,7.20
2017-09-26T12:58:34.687Z,16.53
2017-09-26T13:01:02.259Z,7.23
2017-09-26T13:03:29.809Z,9.70
2017-09-26T13:05:57.455Z,6.63
2017-09-26T13:08:25.042Z,7.37
2017-09-26T13:10:52.622Z,6.67
2017-09-26T13:13:21.023Z,8.90
2017-09-26T13:15:48.608Z,10.07
2017-09-26T13:18:16.217Z,6.07
2017-09-26T13:20:44.887Z,8.07
2017-09-26T13:23:12.623Z,15.70
2017-09-26T13:25:40.226Z,9.10
2017-09-26T13:28:08.628Z,6.87
2017-09-26T13:30:36.212Z,6.60
2017-09-26T13:33:03.781Z,7.80
2017-09-26T13:35:31.841Z,10.33
2017-09-26T13:37:59.490Z,9.10
2017-09-26T13:40:27.134Z,10.73
2017-09-26T13:42:54.743Z,45.37
2017-09-26T13:45:22.322Z,7.87
2017-09-26T13:47:49.903Z,8.37
2017-09-26T13:50:17.849Z,6.40
2017-09-26T13:52:45.415Z,7.90
2017-09-26T13:55:14.474Z,8.30
2017-09-26T13:57:42.106Z,8.57
2017-09-26T14:00:09.672Z,6.40
2017-09-26T14:02:37.249Z,6.07
2017-09-26T14:05:04.901Z,11.87
2017-09-26T14:07:32.465Z,6.43
2017-09-26T14:10:00.046Z,7.33
2017-09-26T14:12:27.829Z,9.10
2017-09-26T14:14:55.387Z,8.73
2017-09-26T14:17:22.979Z,5.27
2017-09-26T14:19:51.351Z,6.23
2017-09-26T14:22:18.911Z,8.37
2017-09-26T14:24:47.316Z,10.27
2017-09-26T14:27:14.939Z,7.47
2017-09-26T14:29:42.570Z,5.53
2017-09-26T14:32:10.167Z,7.40
2017-09-26T14:34:38.581Z,6.00
2017-09-26T14:37:06.123Z,9.07
2017-09-26T14:39:34.449Z,6.10
2017-09-26T14:42:02.068Z,10.80
2017-09-26T14:44:29.810Z,6.30
2017-09-26T14:46:57.575Z,6.47
2017-09-26T14:49:26.006Z,6.90
2017-09-26T14:51:53.568Z,7.80
2017-09-26T14:54:21.129Z,8.40
2017-09-26T14:56:49.567Z,5.47
2017-09-26T14:59:17.162Z,8.47
2017-09-26T15:01:45.384Z,8.37
2017-09-26T15:04:12.983Z,6.70
2017-09-26T15:06:40.523Z,6.33
2017-09-26T15:09:08.090Z,6.40
2017-09-26T15:11:35.768Z,5.73
2017-09-26T15:14:03.417Z,9.00
2017-09-26T15:16:30.996Z,6.13
2017-09-26T15:18:58.761Z,6.03
2017-09-26T15:21:26.332Z,7.67
2017-09-26T15:23:53.922Z,9.60
2017-09-26T15:26:21.740Z,7.27
2017-09-26T15:28:49.306Z,6.53
2017-09-26T15:31:16.886Z,7.63
2017-09-26T15:33:44.563Z,5.53
2017-09-26T15:36:12.139Z,7.80
2017-09-26T15:38:39.684Z,6.63
2017-09-26T15:41:07.307Z,5.83
2017-09-26T15:43:34.887Z,6.17
2017-09-26T15:46:02.493Z,6.97
2017-09-26T15:48:30.952Z,6.60
2017-09-26T15:50:59.292Z,6.37
2017-09-26T15:53:26.888Z,13.40
2017-09-26T15:55:55.268Z,7.67
2017-09-26T15:58:24.375Z,8.63
2017-09-26T16:00:51.936Z,7.50
2017-09-26T16:03:20.325Z,7.93
2017-09-26T16:05:47.923Z,10.70
2017-09-26T16:08:15.480Z,6.83
2017-09-26T16:10:43.824Z,8.30
2017-09-26T16:13:12.179Z,8.90
2017-09-26T16:15:40.543Z,10.33
2017-09-26T16:18:09.001Z,16.77
2017-09-26T16:20:36.569Z,14.73
2017-09-26T16:23:04.160Z,13.27
2017-09-26T16:25:32.579Z,11.50
2017-09-26T16:28:00.147Z,9.07
2017-09-26T16:30:27.708Z,15.47
2017-09-26T16:32:55.323Z,11.63
2017-09-26T16:35:22.900Z,15.07
2017-09-26T16:37:51.238Z,12.00
2017-09-26T16:40:18.868Z,9.43
2017-09-26T16:42:46.451Z,9.10
2017-09-26T16:45:14.551Z,10.27
2017-09-26T16:47:43.077Z,12.70
2017-09-26T16:50:10.642Z,12.00
2017-09-26T16:52:38.338Z,9.47
2017-09-26T16:55:05.975Z,14.90
2017-09-26T16:57:33.591Z,8.00
2017-09-26T17:00:01.147Z,8.33
2017-09-26T17:02:29.808Z,8.50
2017-09-26T17:04:57.383Z,27.40
2017-09-26T17:07:24.987Z,20.60
2017-09-26T17:09:52.641Z,11.40
2017-09-26T17:12:20.220Z,15.00
2017-09-26T17:14:47.874Z,13.33
2017-09-26T17:17:15.779Z,12.70
2017-09-26T17:19:43.373Z,13.60
2017-09-26T17:22:10.931Z,12.87
2017-09-26T17:24:39.357Z,13.30
2017-09-26T17:27:06.938Z,12.50
2017-09-26T17:29:34.531Z,12.67
2017-09-26T17:32:03.385Z,13.90
2017-09-26T17:34:30.985Z,13.90
2017-09-26T17:36:58.600Z,12.47
2017-09-26T17:39:26.225Z,12.00
2017-09-26T17:41:53.819Z,10.77
2017-09-26T17:44:21.400Z,10.60
2017-09-26T17:46:49.093Z,17.57
2017-09-26T17:49:16.818Z,11.47
2017-09-26T17:51:44.391Z,18.20
2017-09-26T17:54:12.196Z,10.40
2017-09-26T17:56:39.827Z,10.33
2017-09-26T17:59:08.160Z,12.47
2017-09-26T18:01:35.843Z,14.10
2017-09-26T18:04:03.406Z,13.27
2017-09-26T18:06:31.781Z,15.10
2017-09-26T18:08:59.782Z,24.37
2017-09-26T18:11:28.132Z,23.27
2017-09-26T18:13:56.473Z,21.70
2017-09-26T18:16:24.575Z,17.93
2017-09-26T18:18:52.216Z,19.67
2017-09-26T18:21:19.787Z,18.43
2017-09-26T18:23:47.563Z,20.17
2017-09-26T18:26:15.194Z,19.27
2017-09-26T18:28:42.849Z,18.60
2017-09-26T18:31:10.536Z,21.17
2017-09-26T18:33:39.381Z,21.53
2017-09-26T18:36:06.993Z,30.43
2017-09-26T18:38:35.517Z,22.27
2017-09-26T18:41:04.515Z,22.40
2017-09-26T18:43:32.451Z,33.10
2017-09-26T18:46:00.134Z,33.00
2017-09-26T18:48:27.757Z,29.93
2017-09-26T18:50:55.394Z,31.33
2017-09-26T18:53:24.047Z,27.83
2017-09-26T18:55:51.698Z,35.13
2017-09-26T18:58:20.394Z,35.70
2017-09-26T19:00:48.039Z,42.20
2017-09-26T19:03:16.409Z,38.47
2017-09-26T19:05:44.131Z,36.57
2017-09-26T19:08:11.780Z,45.13
2017-09-26T19:10:39.378Z,40.07
2017-09-26T19:13:06.962Z,37.47
2017-09-26T19:15:35.642Z,37.53
2017-09-26T19:18:04.008Z,39.50
2017-09-26T19:20:31.570Z,36.00
2017-09-26T19:22:59.987Z,36.47
2017-09-26T19:25:27.739Z,36.63
2017-09-26T19:27:56.082Z,43.80
2017-09-26T19:30:23.852Z,39.30
2017-09-26T19:32:51.546Z,35.97
2017-09-26T19:35:19.865Z,40.03
2017-09-26T19:37:47.494Z,37.27
2017-09-26T19:40:15.050Z,40.80
2017-09-26T19:42:42.647Z,40.37
2017-09-26T19:45:10.278Z,49.93
2017-09-26T19:47:37.843Z,49.27
2017-09-26T19:50:05.436Z,43.27
2017-09-26T19:52:33.076Z,37.27
2017-09-26T19:55:00.670Z,41.30
2017-09-26T19:57:28.235Z,37.93
2017-09-26T19:59:56.651Z,39.93
2017-09-26T20:02:24.233Z,38.83
2017-09-26T20:04:51.819Z,52.90
2017-09-26T20:07:19.449Z,40.57
2017-09-26T20:09:47.583Z,40.13
2017-09-26T20:12:15.187Z,50.23
2017-09-26T20:14:42.791Z,37.17
2017-09-26T20:17:10.362Z,40.90
2017-09-26T20:19:37.915Z,43.57
2017-09-26T20:22:05.758Z,47.57
2017-09-26T20:24:33.335Z,45.13
2017-09-26T20:27:00.911Z,43.70
2017-09-26T20:29:29.454Z,41.37
2017-09-26T20:31:57.122Z,39.77
2017-09-26T20:34:24.723Z,43.80
2017-09-26T20:36:52.359Z,39.43
2017-09-26T20:39:21.030Z,41.70
2017-09-26T20:41:48.608Z,43.20
2017-09-26T20:44:16.239Z,51.53
2017-09-26T20:46:43.892Z,54.70
2017-09-26T20:49:11.546Z,44.80
2017-09-26T20:51:39.216Z,55.37
2017-09-26T20:54:06.807Z,50.67
2017-09-26T20:56:34.392Z,45.83
2017-09-26T20:59:02.039Z,49.17
2017-09-26T21:01:29.600Z,46.77
2017-09-26T21:03:57.178Z,55.57
2017-09-26T21:06:24.810Z,52.87
2017-09-26T21:08:52.556Z,47.83
2017-09-26T21:11:20.157Z,57.07
2017-09-26T21:13:47.787Z,59.37
2017-09-26T21:16:15.359Z,52.77
2017-09-26T21:18:42.902Z,57.20
2017-09-26T21:21:10.516Z,55.63
2017-09-26T21:23:38.124Z,51.30
2017-09-26T21:26:05.725Z,44.87
2017-09-26T21:28:33.339Z,54.77
2017-09-26T21:31:00.909Z,45.90
2017-09-26T21:33:28.522Z,54.70
2017-09-26T21:35:56.144Z,58.87
2017-09-26T21:38:23.724Z,46.90
2017-09-26T21:40:52.096Z,47.77
2017-09-26T21:43:19.712Z,53.60
2017-09-26T21:45:47.280Z,63.13
2017-09-26T21:48:14.847Z,66.30
2017-09-26T21:50:43.289Z,58.60
2017-09-26T21:53:10.850Z,62.87
2017-09-26T21:55:38.439Z,61.03
2017-09-26T21:58:06.087Z,63.20
2017-09-26T22:00:33.648Z,58.23
2017-09-26T22:03:01.207Z,60.33
2017-09-26T22:05:28.812Z,64.47
2017-09-26T22:07:57.144Z,63.17
2017-09-26T22:10:24.719Z,67.60
2017-09-26T22:12:52.603Z,62.27
2017-09-26T22:15:20.186Z,59.20
2017-09-26T22:17:47.768Z,54.13
2017-09-26T22:20:15.651Z,53.80
2017-09-26T22:22:43.420Z,56.00
2017-09-26T22:25:10.968Z,62.37
2017-09-26T22:27:38.594Z,59.67
2017-09-26T22:30:06.918Z,64.67
2017-09-26T22:32:34.510Z,57.33
2017-09-26T22:35:02.208Z,54.73
2017-09-26T22:37:30.603Z,76.93
2017-09-26T22:39:58.167Z,57.90
2017-09-26T22:42:25.837Z,59.27
2017-09-26T22:44:53.401Z,57.47
2017-09-26T22:47:20.945Z,53.13
2017-09-26T22:49:48.759Z,57.63
2017-09-26T22:52:16.348Z,46.10
2017-09-26T22:54:43.934Z,56.27
2017-09-26T22:57:11.538Z,58.13
2017-09-26T22:59:39.122Z,66.30
2017-09-26T23:02:06.714Z,57.47
2017-09-26T23:04:34.350Z,59.23
2017-09-26T23:07:02.685Z,55.93
2017-09-26T23:09:31.101Z,57.87
2017-09-26T23:11:59.716Z,75.80
2017-09-26T23:14:27.350Z,62.50
2017-09-26T23:16:55.142Z,65.27
2017-09-26T23:19:22.793Z,62.07
2017-09-26T23:21:50.677Z,57.07
2017-09-26T23:24:18.274Z,57.53
2017-09-26T23:26:45.892Z,62.13
2017-09-26T23:29:13.630Z,61.03
2017-09-26T23:31:41.223Z,49.90
2017-09-26T23:34:08.890Z,53.63
2017-09-26T23:36:36.507Z,68.23
2017-09-26T23:39:04.051Z,57.80
2017-09-26T23:41:32.960Z,62.07
2017-09-26T23:44:00.530Z,59.53
2017-09-26T23:46:28.076Z,59.83
2017-09-26T23:48:56.451Z,59.53
2017-09-26T23:51:24.048Z,60.67
2017-09-26T23:53:51.694Z,56.50
2017-09-26T23:56:19.499Z,66.60
2017-09-26T23:58:47.076Z,77.93
